Tiempo atmosférico en la estación meteorológica de Santiago de Compostela Aeropuerto, A Coruña (370 m.)



Fecha
DESCASC
Temp. máxima en grados centígrados (hora)
DESCASC
Temp. mínima en grados centígrados (hora)
DESCASC
Temp. media en grados centígrados
DESCASC
Racha de viento máxima en m/sg (hora)
DESCASC
Velocidad máxima media en intervalos de 10 minutos(hora)
DESCASC
Precipitaciones diarias en mm
DESCASC
Precipitaciones de 00:00 a 06:00 en mm
DESCASC
Precipitaciones de 06:00 a 12:00 en mm
DESCASC
Precipitaciones de 12:00 a 18:00 en mm
DESCASC
Precipitaciones de 18:00 a 24:00 en mm
DESCASC
18-04-2019 17.4 (15:40) 7.5 (07:50) 12.4 9.17 (19:00) 5.83 (19:00) 0.7 0.7 0 0 0
17-04-2019 15.2 (13:50) 9.3 (05:00) 12.3 9.72 (14:10) 6.39 (14:10) 6.1 0 0 1.8 4.3
16-04-2019 17.8 (16:50) 6 (00:00) 11.9 7.78 (15:40) 4.17 (15:50) 0 0 0 0 0
15-04-2019 15.1 (01:40) 7.4 (00:00) 11.3 13.89 (09:50) 8.33 (09:50) 15.1 2.2 10 2.9 0
14-04-2019 19.1 (15:50) 12.2 (00:00) 15.7 9.17 (18:50) 5.83 (19:40) 0.3 0 0 0 0.3
13-04-2019 16.3 (14:50) 8.2 (00:00) 12.2 8.89 (15:00) 5.28 (15:00) 0 0 0 0 0
12-04-2019 17.8 (16:40) 2.8 (00:00) 10.3 7.78 (15:50) 3.61 (15:50) 0 0 0 0 0
11-04-2019 16.1 (16:40) 2.1 (00:00) 9.1 6.11 (15:30) 3.89 (15:30) 0 0 0 0 0
10-04-2019 14 (16:10) 5.7 (00:00) 9.8 11.39 (15:50) 6.67 (19:30) 0.9 0 0.2 0.7 0
09-04-2019 11.7 (14:30) 4.9 (00:00) 8.3 14.44 (18:20) 7.5 (18:20) 21.6 9 1.5 4.8 6.3
08-04-2019 12.5 (13:50) 5.7 (00:00) 9.1 15.28 (17:50) 8.06 (17:20) 7.8 0.4 0.1 1.7 5.6
07-04-2019 9.9 (13:10) 1.6 (00:00) 5.7 9.17 (15:00) 5 (15:00) 23.3 0 0 8.8 14.5
06-04-2019 10.3 (16:10) 4.1 (00:00) 7.2 16.94 (17:30) 8.06 (17:30) 18.5 6.5 6.3 4.1 1.6
05-04-2019 7.9 (15:00) 1.1 (00:00) 4.5 12.5 (12:10) 6.11 (12:40) 10.2 0.8 1.2 5.4 2.8
04-04-2019 7.3 (15:50) 0.2 (00:00) 3.8 13.89 (15:40) 8.06 (15:10) 19.4 0 0.1 3.9 15.4
03-04-2019 10.5 (14:30) 2.8 (00:00) 6.6 16.39 (14:00) 10.83 (18:40) 2.4 0.2 1.1 0.8 0.3
02-04-2019 13.9 (16:00) 7 (00:00) 10.4 11.39 (20:20) 8.33 (20:20) 0 0 0 0 0
01-04-2019 21 (16:30) 7.7 (00:00) 14.3 6.67 (15:00) 3.33 (15:00) 0 0 0 0 0
31-03-2019 21.7 (15:40) 4.1 (00:00) 12.9 10.83 (20:00) 7.22 (15:50) 1.9 0 0 0 1.9
30-03-2019 20.2 (15:30) 5.5 (00:00) 12.9 8.33 (14:10) 5.56 (16:30) 0 0 0 0 0
29-03-2019 21.5 (14:30) 6.7 (00:00) 14.1 8.89 (15:40) 5.83 (16:50) 0 0 0 0 0
28-03-2019 22 (16:50) 4.9 (00:00) 13.5 8.33 (14:40) 3.61 (14:40) 0 0 0 0 0
27-03-2019 22.7 (15:20) 3.7 (00:00) 13.2 7.22 (13:10) 3.33 (07:10) 0 0 0 0 0
26-03-2019 20.8 (15:30) 4.8 (00:00) 12.8 9.72 (14:30) 3.89 (12:40) 0 0 0 0 0
25-03-2019 19.2 (16:00) 6.1 (00:00) 12.7 10.28 (19:20) 3.33 (17:30) 0 0 0 0 0
24-03-2019 23 (16:10) 8.2 (00:00) 15.6 8.89 (19:00) 3.89 (16:30) 0 0 0 0 0
23-03-2019 21.7 (16:30) 6 (00:00) 13.9 7.78 (19:20) 5.28 (19:20) 0 0 0 0 0
22-03-2019 18.9 (16:20) 5.4 (00:00) 12.1 7.22 (12:20) 3.89 (17:40) 0 0 0 0 0
21-03-2019 18.7 (17:30) 4.5 (00:00) 11.6 7.78 (19:50) 5.28 (19:40) 0 0 0 0 0

Gráficas

Temp. máximas Temp. mínimas Temp. medias Precipitaciones Rachas de viento máximas Velocidades máximas media en intervalos de 10 minutos

Datos horarios

Fecha y hora oficial Temperatura (ºC) Velocidad del viento (km/h) Dirección del viento Racha (km/h) Dirección de racha Precipitación (mm) Presión (hPa) Tendencia (hPa) Humedad (%)
2019-04-19 23:00:00 13.4 4 Nordeste 18 Nordeste 0 979.6 3.1 80
2019-04-19 22:00:00 14.3 6 Este 18 Nordeste 0 978.4 2.4 73
2019-04-19 21:00:00 15.6 5 Nordeste 18 Norte 0 977.1 1.7 68
2019-04-19 20:00:00 16.6 10 Norte 39 Norte 0 976.5 1.5 73
2019-04-19 19:00:00 18 14 Norte 35 Nordeste 0 976 0.9 67
2019-04-19 18:00:00 18.1 16 Norte 41 Norte 0 975.4 0.2 67
2019-04-19 17:00:00 19.5 12 Norte 32 Norte 0 975 0.4 60
2019-04-19 16:00:00 17.8 12 Norte 28 Este 0 975.1 0.2 66
2019-04-19 15:00:00 17.5 9 Nordeste 24 Nordeste 0 975.2 0.4 65
2019-04-19 14:00:00 16.8 9 Nordeste 28 Nordeste 0 974.6 0 69
2019-04-19 13:00:00 14.5 15 Norte 33 Nordeste 0 974.9 0.7 80
2019-04-19 12:00:00 12.7 10 Norte 26 Norte 0 974.8 0.8 88
2019-04-19 11:00:00 12.1 11 Norte 32 Norte 0 974.6 1.3 91
2019-04-19 10:00:00 11 15 Norte 35 Norte 0 974.2 1.3 96
2019-04-19 09:00:00 10.4 15 Norte 32 Norte 0 974 1.1 98
2019-04-19 08:00:00 10.5 15 Norte 35 Nordeste 0 973.3 0.4 97
2019-04-19 07:00:00 10.4 14 Norte 33 Norte 0 972.9 -0.2 96
2019-04-19 06:00:00 10 15 Norte 32 Norte 0 972.9 -0.5 97
2019-04-19 05:00:00 9.7 12 Norte 24 Norte 0 972.9 -1 96
2019-04-19 04:00:00 9.8 12 Norte 21 Norte 0 973.1 -0.8 91
2019-04-19 03:00:00 9.4 12 Norte 17 Norte 0 973.4 -0.3 93
2019-04-19 02:00:00 10.4 6 Norte 15 Nordeste 0 973.9 0.3 86
2019-04-19 01:00:00 10.4 4 Norte 18 Norte 0 973.9 0.9 84
2019-04-19 00:00:00 11.4 10 Norte 21 Norte 0 973.7 1.6 80
2019-04-18 23:00:00 12 4 Norte 15 Nordeste 0 973.6 2.3 80
2019-04-18 22:00:00 12.3 9 Norte 21 Norte 0 973 2.4 85
2019-04-18 21:00:00 12.9 15 Norte 28 Norte 0 972.1 2.1 82
2019-04-18 20:00:00 13.6 19 Norte 33 Norte 0 971.3 1.4 78
2019-04-18 19:00:00 14.9 21 Norte 33 Norte 0 970.6 0.3 73
2019-04-18 18:00:00 16.6 12 Norte 28 Norte 0 970 -0.5 68
2019-04-18 17:00:00 16.4 10 Norte 30 Norte 0 969.9 -0.4 62
2019-04-18 16:00:00 16 7 Nordeste 22 Norte 0 970.3 0.1 62
2019-04-18 15:00:00 15.3 8 Norte 15 Norte 0 970.5 0.6 66
2019-04-18 14:00:00 15.1 4 Norte 13 Norte 0 970.3 0.6 62
2019-04-18 13:00:00 14.3 3 Sudoeste 17 Sudoeste 0 970.2 0.8 66
2019-04-18 12:00:00 13.3 7 Oeste 15 Sur 0 969.9 1.1 76
2019-04-18 11:00:00 12.3 6 Sur 13 Sudeste 0 969.7 1.8 83
2019-04-18 10:00:00 9.6 2 Sur 5 Sur 0 969.4 2.2 100
2019-04-18 09:00:00 8.6 3 Sudeste 9 Sudeste 0 968.8 2 100
2019-04-18 08:00:00 8.5 5 Sudeste 11 Sudeste 0 967.9 1.1 100
2019-04-18 07:00:00 8.6 3 Sur 5 Sur 0 967.2 0.6 100
2019-04-18 06:00:00 8.8 4 Sur 13 Sur 0.2 966.8 -0.2 100
2019-04-18 05:00:00 9.4 5 Sur 11 Sudeste 0.1 966.8 0.1 100
2019-04-18 04:00:00 9.5 3 Sudeste 11 Sudeste 0.1 966.6 0.2 100
2019-04-18 03:00:00 9.6 4 Sudeste 8 Este 0.2 967 0.7 100
2019-04-18 02:00:00 9.8 4 Sudeste 9 Sudeste 0 966.7 0.9 100
2019-04-18 01:00:00 10.1 0 Calma 9 Sudeste 0.1 966.4 1.2 100
2019-04-18 00:00:00 10.3 3 Sudeste 11 Sudeste 0.5 966.3 1.7 100
2019-04-17 23:00:00 10.3 4 Sudeste 9 Sudeste 0 965.8 1.6 100
2019-04-17 22:00:00 10.4 4 Sudeste 9 Sudeste 0 965.2 1.4 100
2019-04-17 21:00:00 10.5 2 Este 13 Sur 0.4 964.6 1.2 100
2019-04-17 20:00:00 10.8 10 Sur 18 Sur 1 964.2 0.9 98
2019-04-17 19:00:00 11.1 12 Sudoeste 24 Sudoeste 2.4 963.8 0.4 97
2019-04-17 18:00:00 12.1 10 Sudoeste 21 Sudoeste 0.7 963.4 0.4 93
2019-04-17 17:00:00 12.5 13 Sudoeste 30 Sudoeste 0.5 963.3 0.2 90
2019-04-17 16:00:00 12.5 16 Sudoeste 26 Sudoeste 0.6 963.4 0.1 87
2019-04-17 15:00:00 14.3 16 Sur 35 Sur 0 963 -0.6 72
2019-04-17 14:00:00 14.9 14 Sur 28 Sur 0 963.1 -0.7 64
2019-04-17 13:00:00 14.4 13 Sudeste 26 Sudeste 0 963.3 -0.3 65
2019-04-17 12:00:00 12.8 9 Sudeste 18 Sudeste 0 963.6 0.4 73
2019-04-17 11:00:00 11.8 7 Sudeste 13 Sur 0 963.8 0.2 75
2019-04-17 10:00:00 11.1 3 Sudeste 13 Sur 0 963.6 0.4 78
2019-04-17 09:00:00 10.5 5 Sudoeste 11 Sudoeste 0 963.2 -0.2 77
2019-04-17 08:00:00 10.2 3 Sur 11 Sudeste 0 963.6 0 78
2019-04-17 07:00:00 10.8 4 Sur 17 Sur 0 963.2 -0.7 74
2019-04-17 06:00:00 10 4 Sudoeste 9 Sudeste 0 963.4 -1 81
2019-04-17 05:00:00 9.6 5 Sudeste 9 Sur 0 963.6 -2.1 82
2019-04-17 04:00:00 10.2 6 Sudeste 11 Sudeste 0 963.9 -2.8 80
2019-04-17 03:00:00 9.6 3 Sudeste 9 Sudeste 0 964.4 -3.4 80
2019-04-17 02:00:00 9.8 3 Sudeste 5 Sudeste 0 965.7 -2.3 75
2019-04-17 01:00:00 10.1 3 Nordeste 15 Norte 0 966.7 -1.5 72
2019-04-17 00:00:00 10.8 6 Noroeste 11 Noroeste 0 967.8 -0.6 69
2019-04-16 23:00:00 10.9 8 Oeste 15 Noroeste 0 968 -0.8 71
2019-04-16 22:00:00 12.8 8 Oeste 15 Oeste 0 968.2 -0.9 63
2019-04-16 21:00:00 13.8 6 Oeste 17 Oeste 0 968.4 -1.1 65
2019-04-16 20:00:00 16 8 Oeste 17 Oeste 0 968.8 -1.5 60
2019-04-16 19:00:00 17.2 10 Sudoeste 18 Sudoeste 0 969.1 -1.9 57
2019-04-16 18:00:00 17.2 9 Sudoeste 22 Sur 0 969.5 -2.1 55
2019-04-16 17:00:00 17.3 12 Sudoeste 24 Sudoeste 0 970.3 -1.9 53
2019-04-16 16:00:00 16.5 13 Sudoeste 28 Sur 0 971 -1.7 51
2019-04-16 15:00:00 16.1 12 Sur 26 Sur 0 971.6 -1.8 56
2019-04-16 14:00:00 14.6 10 Sur 18 Oeste 0 972.2 -1.4 66
2019-04-16 13:00:00 13.4 6 Sur 15 Sur 0 972.7 -1.2 69
2019-04-16 12:00:00 12.2 5 Sur 13 Sur 0 973.4 -0.4 75
2019-04-16 11:00:00 10.6 7 Sur 15 Sudeste 0 973.6 -0.1 79
2019-04-16 10:00:00 8.7 7 Sudeste 13 Sudeste 0 973.9 0.1 85
2019-04-16 09:00:00 7.3 6 Sur 11 Sur 0 973.8 -0.3 90
2019-04-16 08:00:00 6.2 5 Sudeste 11 Sur 0 973.7 -0.6 95
2019-04-16 07:00:00 6.3 6 Sudeste 9 Sudeste 0 973.8 -0.6 95
2019-04-16 06:00:00 6.4 5 Sur 9 Sur 0 974.1 -0.5 95
2019-04-16 05:00:00 6.7 4 Sur 11 Sudeste 0 974.3 -0.8 96
2019-04-16 04:00:00 7.4 5 Sudeste 9 Sur 0 974.4 -0.5 95
2019-04-16 03:00:00 7.6 5 Sur 11 Sudeste 0 974.6 -0.1 95
2019-04-16 02:00:00 7.7 6 Sur 9 Sur 0 975.1 0.6 95
2019-04-16 01:00:00 7.2 5 Sur 11 Sudeste 0 974.9 0.9 96
2019-04-16 00:00:00 7.8 4 Sudeste 13 Sudoeste 0 974.7 1.6 95
2019-04-15 23:00:00 8.8 9 Sudoeste 18 Sudoeste 0 974.5 2.1 92
2019-04-15 22:00:00 9.4 10 Sudoeste 24 Sudoeste 0 974 2.3 88
2019-04-15 21:00:00 10.5 12 Sudoeste 22 Sur 0 973.1 2.2 86
2019-04-15 20:00:00 11.5 11 Oeste 24 Oeste 0 972.4 2.4 77
2019-04-15 19:00:00 13 17 Oeste 35 Oeste 0 971.7 2.4 67
2019-04-15 18:00:00 12.7 17 Sudoeste 30 Oeste 0 970.9 2.2 72
2019-04-15 17:00:00 12.2 15 Oeste 33 Sudoeste 0 970 1.7 79
2019-04-15 16:00:00 12.4 22 Oeste 41 Oeste 0 969.3 1.4 84
2019-04-15 15:00:00 12.3 20 Oeste 35 Oeste 2.2 968.7 1 92
2019-04-15 14:00:00 11.3 14 Sudoeste 26 Oeste 0.2 968.3 1.5 95
2019-04-15 13:00:00 10.8 18 Sudoeste 33 Sudoeste 0.5 967.9 2.4 96
2019-04-15 12:00:00 10.6 18 Sudoeste 41 Sudoeste 1.9 967.7 2.4 97
2019-04-15 11:00:00 10.8 23 Sudoeste -- -- -- 966.8 1.3 96
2019-04-15 10:00:00 11.8 22 Sudoeste 50 Sudoeste 7 965.5 0.2 97
2019-04-15 09:00:00 12.9 19 Sur 41 Sur 0.1 965.3 -0.2 94
2019-04-15 08:00:00 12.8 22 Sur 39 Sur 0.2 965.5 -0.7 97
2019-04-15 07:00:00 13 24 Sur 39 Sudoeste 0.8 965.3 -1.6 99
2019-04-15 06:00:00 13.5 15 Sudoeste 28 Sudoeste 0.8 965.5 -2.5 100
2019-04-15 05:00:00 14.2 16 Sur 28 Sur 1.4 966.2 -2.6 99
2019-04-15 04:00:00 14.9 16 Sur 28 Sur 0 966.9 -2.7 94
2019-04-15 03:00:00 15 10 Sur 17 Sur 0 968 -2.1 92
2019-04-15 02:00:00 15 10 Sur 24 Sur 0 968.8 -1.8 92
2019-04-15 01:00:00 14.9 7 Sudeste 18 Sur 0 969.6 -1 92
2019-04-15 00:00:00 14.7 8 Sur 17 Sur 0 970.1 -0.4 93
2019-04-14 23:00:00 14.8 9 Sur 18 Sur 0 970.6 -0.1 93
2019-04-14 22:00:00 14.6 9 Sur 18 Sur 0 970.6 -0.4 97
2019-04-14 21:00:00 15.2 11 Sudoeste 24 Sur 0 970.5 -0.8 95
2019-04-14 20:00:00 15.3 13 Sur 30 Sur 0.3 970.7 -1.2 97
2019-04-14 19:00:00 16.1 18 Sudoeste 33 Sudoeste 0 971 -1.8 92
2019-04-14 18:00:00 17.5 15 Sudoeste 30 Sudoeste 0 971.3 -1.9 87
2019-04-14 17:00:00 18 18 Sudoeste 32 Sur 0 971.9 -1.5 82
2019-04-14 16:00:00 18.5 19 Sur 32 Sudoeste 0 972.8 -0.8 79
2019-04-14 15:00:00 18.1 17 Sudoeste 28 Sudoeste 0 973.2 -0.7 82
2019-04-14 14:00:00 17.6 13 Sudoeste 26 Sudoeste 0 973.4 -0.2 84
2019-04-14 13:00:00 16.8 15 Sur 21 Sur 0 973.6 0.2 90
2019-04-14 12:00:00 14.7 9 Sur 17 Sur 0 973.9 0.5 98
2019-04-14 11:00:00 13.7 6 Sur 11 Sur 0 973.6 0.3 100
2019-04-14 10:00:00 13.1 7 Sur 11 Sur 0 973.4 0 100
2019-04-14 09:00:00 12.8 5 Sur 11 Sur 0 973.4 -0.4 100
2019-04-14 08:00:00 12.8 6 Sur 13 Sur 0 973.3 -0.8 100
2019-04-14 07:00:00 12.8 8 Sur 15 Sur 0 973.4 -1 100
2019-04-14 06:00:00 12.6 10 Sur 17 Sur 0 973.8 -0.9 100
2019-04-14 05:00:00 12.7 7 Sudoeste 18 Sudoeste 0 974.1 -0.7 100
2019-04-14 04:00:00 12.7 12 Sudoeste 21 Sudoeste 0 974.4 -1.1 100
2019-04-14 03:00:00 12.5 9 Sur 17 Sur 0 974.7 -1.2 100
2019-04-14 02:00:00 12.4 13 Sur 21 Sur 0 974.8 -1.1 100
2019-04-14 01:00:00 12.3 9 Sur 17 Sur 0 975.5 -0.2 100
2019-04-14 00:00:00 12.3 10 Sur 22 Sur 0 975.9 0.6 100
2019-04-13 23:00:00 12.3 13 Sur 22 Sur 0 975.9 0.7 100
2019-04-13 22:00:00 12.4 13 Sur 21 Sur 0 975.7 0.7 99
2019-04-13 21:00:00 13 12 Sur 21 Sudoeste 0 975.3 0.6 94
2019-04-13 20:00:00 13.1 12 Sudoeste 22 Sur 0 975.2 0.2 94
2019-04-13 19:00:00 13.3 16 Sur 28 Sur 0 975 -0.2 92
2019-04-13 18:00:00 14 18 Sur 30 Sur 0 974.7 -0.3 88
2019-04-13 17:00:00 14.2 14 Sur 30 Sur 0 975 -0.3 82
2019-04-13 16:00:00 15.6 16 Sudoeste 32 Sudoeste 0 975.2 -0.1 64
2019-04-13 15:00:00 16.1 19 Sur 32 Sur 0 975 -0.4 66
2019-04-13 14:00:00 14.6 17 Sudoeste 30 Oeste 0 975.3 -0.1 61
2019-04-13 13:00:00 15 13 Sudoeste 30 Sur 0 975.3 0 53
2019-04-13 12:00:00 14.7 14 Sur 24 Sur 0 975.4 0.3 55
2019-04-13 11:00:00 12.7 10 Sur 15 Sur 0 975.4 0.2 64
2019-04-13 10:00:00 10.4 3 Sudeste 11 Sur 0 975.3 0.3 80
2019-04-13 09:00:00 8.9 5 Sur 9 Sur 0 975.1 0 83
2019-04-13 08:00:00 9.2 5 Sur -- -- 0 975.2 0 82
2019-04-13 07:00:00 8.9 5 Sur 8 Sur 0 975 -0.7 81
2019-04-13 06:00:00 8.8 4 Sur 8 Sudeste 0 975.1 -1 83
2019-04-13 05:00:00 8.3 0 Calma 5 Sudeste 0 975.2 -1.2 83
2019-04-13 04:00:00 8.8 4 Sur 8 Sur 0 975.7 -0.7 79
2019-04-13 03:00:00 9.3 5 Sur 8 Sur 0 976.1 -0.4 79
2019-04-13 02:00:00 9 0 Calma -- -- 0 976.4 -0.2 79
2019-04-13 01:00:00 9.9 7 Sur 9 Sur 0 976.4 0.2 73
2019-04-13 00:00:00 10.8 0 Calma 8 Sudoeste 0 976.5 1.1 70
2019-04-12 23:00:00 11 2 Oeste 13 Noroeste 0 976.6 1.4 72
2019-04-12 22:00:00 11.9 6 Noroeste 26 Sudoeste 0 976.2 1 64
2019-04-12 21:00:00 13.4 9 Oeste 17 Oeste 0 975.4 0.1 57
2019-04-12 20:00:00 15.3 9 Sudoeste 22 Oeste 0 975.2 -0.5 54
2019-04-12 19:00:00 16.1 12 Sudoeste 21 Sudoeste 0 975.2 -1 54
2019-04-12 18:00:00 17 9 Oeste 22 Oeste 0 975.3 -1.3 52
2019-04-12 17:00:00 17 12 Oeste 26 Oeste 0 975.7 -1.3 52
2019-04-12 16:00:00 16.9 11 Oeste 28 Noroeste 0 976.2 -1.2 39
2019-04-12 15:00:00 16.4 7 Oeste 21 Noroeste 0 976.6 -0.8 46
2019-04-12 14:00:00 15.3 10 Sur 21 Sur 0 977 -0.2 47
2019-04-12 13:00:00 14.1 8 Sur 18 Sudoeste 0 977.4 0.2 52
2019-04-12 12:00:00 11.4 3 Sur 13 Este 0 977.4 0.1 74
2019-04-12 11:00:00 7.6 9 Sudeste 15 Sudeste 0 977.2 0 91
2019-04-12 10:00:00 4.9 2 Este 9 Sudeste 0 977.2 0.2 100
2019-04-12 09:00:00 4.2 3 Sudeste 9 Sudeste 0 977.3 0.2 100
2019-04-12 08:00:00 4 0 Calma 5 Nordeste 0 977.2 0 100
2019-04-12 07:00:00 3.1 2 Este 8 Este 0 977 -0.6 99
2019-04-12 06:00:00 3.5 0 Calma 5 Este 0 977.1 -1 98
2019-04-12 05:00:00 5 2 Sudeste 5 Este 0 977.2 -0.9 97
2019-04-12 04:00:00 5.5 0 Calma 5 Sudeste 0 977.6 -0.9 94
2019-04-12 03:00:00 5.8 3 Sur 5 Sur 0 978.1 -0.3 93
2019-04-12 02:00:00 6.6 2 Este 5 Sudeste 0 978.1 -0.4 93
2019-04-12 01:00:00 7 0 Calma 5 Nordeste 0 978.5 0.1 90
2019-04-12 00:00:00 7.8 2 Norte 9 Norte 0 978.4 0.3 90
2019-04-11 23:00:00 8.4 6 Norte 15 Norte 0 978.5 0.6 86
2019-04-11 22:00:00 9.2 11 Norte 18 Norte 0 978.4 0.5 81
2019-04-11 21:00:00 11 8 Norte 18 Nordeste 0 978.1 0.3 75
2019-04-11 20:00:00 13.5 7 Norte 18 Norte 0 977.9 0.1 67
2019-04-11 19:00:00 13.9 6 Norte 22 Nordeste 0 977.9 -0.3 67
2019-04-11 18:00:00 14.9 8 Norte 22 Norte 0 977.8 -0.8 57
2019-04-11 17:00:00 15.3 5 Este 21 Norte 0 977.8 -1.2 52
2019-04-11 16:00:00 15 6 Sudeste 22 Norte 0 978.2 -1.2 52
2019-04-11 15:00:00 14.4 4 Nordeste 17 Norte 0 978.6 -0.9 53
2019-04-11 14:00:00 13.5 6 Este 21 Nordeste 0 979 -0.3 57
2019-04-11 13:00:00 11.3 4 Norte 13 Norte 0 979.4 0.3 80
2019-04-11 12:00:00 8.1 4 Este 9 Sudeste 0 979.5 0.5 100
2019-04-11 11:00:00 5 3 Este 9 Este 0 979.3 0.7 100
2019-04-11 10:00:00 4.6 6 Sur 9 Sur 0 979.1 0.8 100
2019-04-11 09:00:00 2.7 -- -- -- -- 0 979 0.6 100
2019-04-11 08:00:00 2.7 2 Noroeste 9 Oeste 0 978.6 0.1 100
2019-04-11 07:00:00 3.7 5 Oeste 11 Noroeste 0 978.3 -0.1 100
2019-04-11 06:00:00 4.4 4 Noroeste 9 Noroeste 0 978.4 -0.1 100
2019-04-11 05:00:00 5.4 4 Norte 5 Norte 0 978.5 -0.2 100
2019-04-11 04:00:00 6.1 2 Este 8 Este 0 978.4 -0.3 100
2019-04-11 03:00:00 6.1 3 Norte 9 Noroeste 0 978.5 -0.1 100
2019-04-11 02:00:00 6.3 2 Norte 9 Norte 0 978.7 0.1 99
2019-04-11 01:00:00 6.4 0 Calma 8 Norte 0 978.7 0.7 98
2019-04-11 00:00:00 6.9 0 Calma 13 Norte 0 978.6 1.4 97
2019-04-10 23:00:00 7.4 9 Norte 21 Norte 0 978.6 1.7 94
2019-04-10 22:00:00 8.5 13 Norte 22 Norte 0 978 1.6 87
2019-04-10 21:00:00 9.8 13 Norte 26 Norte 0 977.2 1.2 80
2019-04-10 20:00:00 11.4 16 Norte 33 Norte 0 976.9 1.2 73
2019-04-10 19:00:00 13 11 Norte 32 Norte 0 976.4 0.6 68
2019-04-10 18:00:00 12.2 18 Norte 35 Norte 0 976 0.4 69
2019-04-10 17:00:00 13.6 21 Norte 35 Norte 0 975.7 0.1 68
2019-04-10 16:00:00 12.7 19 Norte 41 Noroeste 0 975.8 0.1 69
2019-04-10 15:00:00 11.8 20 Norte 32 Norte 0.6 975.6 0.2 80
2019-04-10 14:00:00 11.3 18 Norte 30 Norte 0.1 975.6 0.5 82
2019-04-10 13:00:00 10.6 15 Noroeste 24 Noroeste 0 975.7 1.3 89
2019-04-10 12:00:00 9.7 13 Noroeste 22 Noroeste 0 975.4 1.4 94
2019-04-10 11:00:00 8.6 11 Noroeste 22 Noroeste 0.2 975.1 1.7 97
2019-04-10 10:00:00 8.4 11 Noroeste 21 Oeste 0 974.4 1.6 96
2019-04-10 09:00:00 7.5 11 Noroeste 17 Noroeste 0 974 1.3 97
2019-04-10 08:00:00 7.2 10 Noroeste 18 Oeste 0 973.4 0.9 96
2019-04-10 07:00:00 7 12 Oeste 32 Oeste 0 972.8 0.6 95
2019-04-10 06:00:00 6.2 12 Oeste 18 Oeste 0 972.7 0.6 96
2019-04-10 05:00:00 6.7 6 Oeste 15 Oeste 0 972.5 0.4 97
2019-04-10 04:00:00 7.5 5 Oeste 17 Oeste 0 972.2 0.3 97
2019-04-10 03:00:00 7.8 11 Oeste 22 Oeste 0 972.1 0.4 96
2019-04-10 02:00:00 7.6 11 Oeste 21 Oeste 0 972.1 0.6 97
2019-04-10 01:00:00 7.2 9 Sudoeste 22 Oeste 0 971.9 1 96
2019-04-10 00:00:00 7.6 9 Sudoeste 28 Oeste 0 971.7 1.6 94
2019-04-09 23:00:00 8.1 16 Oeste 24 Oeste 0 971.5 2.2 92
2019-04-09 22:00:00 8.5 13 Oeste 35 Oeste 0.2 970.9 2 94
2019-04-09 21:00:00 8.6 19 Oeste 33 Oeste 1.7 970.1 1.5 95
2019-04-09 20:00:00 9 15 Oeste 33 Oeste 0 969.3 0.8 92
2019-04-09 19:00:00 8.7 17 Oeste 52 Noroeste 4.4 968.9 0.3 94
2019-04-09 18:00:00 10.9 19 Oeste 41 Oeste 0 968.6 0.2 77
2019-04-09 17:00:00 10 22 Oeste 35 Oeste 1.6 968.5 0 91
2019-04-09 16:00:00 9.2 19 Sudoeste 39 Oeste 0.9 968.6 -0.3 94
2019-04-09 15:00:00 9.8 23 Sudoeste 46 Sudoeste 0.4 968.4 -0.4 88
2019-04-09 14:00:00 9.9 23 Sudoeste 42 Oeste 0.2 968.5 0.1 88
2019-04-09 13:00:00 6.9 17 Oeste 33 Oeste 1.7 968.9 0.9 90
2019-04-09 12:00:00 7.9 16 Oeste 33 Sudoeste 1.2 968.8 1.2 92
2019-04-09 11:00:00 8.8 13 Sudoeste 30 Sudoeste 0 968.4 1.5 87
2019-04-09 10:00:00 6.8 11 Sur 21 Sudoeste 0.3 968 1.5 97
2019-04-09 09:00:00 5.9 9 Sur 17 Sudoeste 0 967.6 1.6 97
2019-04-09 08:00:00 5.9 10 Sudoeste 17 Sudoeste 0 966.9 1.5 92
2019-04-09 07:00:00 6.7 9 Oeste 28 Oeste 0 966.5 1.3 92
2019-04-09 06:00:00 7.3 12 Oeste 26 Oeste 0 966 0.1 93
2019-04-09 05:00:00 7.2 10 Sudoeste 22 Sur 1.9 965.4 -0.3 97
2019-04-09 04:00:00 7.5 15 Sur 32 Sur 0.5 965.2 -0.9 99
2019-04-09 03:00:00 7.8 13 Sudoeste 33 Sudoeste 1.3 965.9 -0.3 98
2019-04-09 02:00:00 7.7 9 Sudoeste 41 Sur 1.2 965.7 -1.2 97
2019-04-09 01:00:00 8.1 17 Sur 28 Sudoeste 4.1 966.1 -0.7 99
2019-04-09 00:00:00 7.5 12 Sur 22 Sur 1.3 966.2 0.2 99
2019-04-08 23:00:00 6.8 13 Sur 35 Sur 2.9 966.9 0.5 97
2019-04-08 22:00:00 8.2 17 Sudoeste 37 Sudoeste 1 966.8 0.1 92
2019-04-08 21:00:00 9 19 Sur 42 Sur 0.4 966 -1.4 89
2019-04-08 20:00:00 10 17 Sudoeste 48 Sur 0 966.4 -1.1 79
2019-04-08 19:00:00 10.1 23 Sur 41 Sur 0 966.7 -1.4 85
2019-04-08 18:00:00 8.7 16 Sur 55 Sudoeste 0.7 967.4 -0.7 85
2019-04-08 17:00:00 10.8 20 Sudoeste 45 Sur 0 967.5 -0.6 69
2019-04-08 16:00:00 10.7 22 Sudoeste 50 Sur 0.3 968.1 -0.3 79
2019-04-08 15:00:00 11.5 23 Sudoeste 48 Sudoeste 0.7 968.1 -0.4 78
2019-04-08 14:00:00 11.8 19 Sudoeste 42 Sudoeste 0 968.1 -0.4 70
2019-04-08 13:00:00 11.3 22 Sudoeste 46 Sudoeste 0 968.4 0.1 75
2019-04-08 12:00:00 10.4 19 Sur 39 Sudoeste 0 968.5 0.2 79
2019-04-08 11:00:00 9.3 14 Sur 24 Sur 0 968.5 0.9 92
2019-04-08 10:00:00 7.6 9 Sur 17 Sur 0 968.3 1 95
2019-04-08 09:00:00 6 4 Sudeste 22 Sudoeste 0 968.3 1 92
2019-04-08 08:00:00 6.8 14 Sudoeste 24 Sudoeste 0 967.6 0.4 88
2019-04-08 07:00:00 7.1 11 Sudoeste 18 Sudoeste 0.1 967.3 0.5 98
2019-04-08 06:00:00 7 7 Sur 17 Sur 0 967.3 0.9 99
2019-04-08 05:00:00 7.7 10 Sudoeste 21 Sudoeste 0 967.2 1.3 97
2019-04-08 04:00:00 8 9 Sudoeste 17 Sudoeste 0 966.8 1.3 97
2019-04-08 03:00:00 8.8 10 Sudoeste 21 Sudoeste 0 966.4 1.9 97
2019-04-08 02:00:00 9 8 Sudoeste 18 Sudoeste 0.3 965.9 1.9 97
2019-04-08 01:00:00 8.9 8 Sudoeste 26 Oeste 0.1 965.5 2 98
2019-04-08 00:00:00 9.9 14 Oeste 24 Oeste 0.9 964.5 1 100
2019-04-07 23:00:00 9.2 8 Sur 21 Sudeste 4.2 964 0.4 100
2019-04-07 22:00:00 8.4 10 Sur 15 Sur 4.7 963.5 -0.1 100
2019-04-07 21:00:00 7.8 10 Sur 15 Sur 1.7 963.5 -0.4 100
2019-04-07 20:00:00 7.8 8 Sur 17 Sur 0.3 963.6 -0.3 100
2019-04-07 19:00:00 7.6 6 Sudeste 18 Sudeste 2.7 963.6 -1.2 100
2019-04-07 18:00:00 7.2 8 Sudeste 28 Sudeste 5.1 963.9 -1.7 99
2019-04-07 17:00:00 7.5 13 Sudeste 26 Sudeste 1.7 963.9 -2 98
2019-04-07 16:00:00 8.2 13 Sudeste 24 Sudeste 0.8 964.8 -1.1 97
2019-04-07 15:00:00 8 18 Sur 33 Sur 1.2 965.6 -0.4 94
2019-04-07 14:00:00 9.3 15 Sudoeste 28 Sur 0 965.9 -0.1 87
2019-04-07 13:00:00 9.6 15 Sur 24 Sur 0 965.9 -0.2 85
2019-04-07 12:00:00 6.9 6 Sur 13 Sur 0 966 0.1 95
2019-04-07 11:00:00 5.2 7 Sur 11 Sur 0 966 0.4 98
2019-04-07 10:00:00 4 8 Sur 11 Sur 0 966.1 0.8 99
2019-04-07 09:00:00 2.8 6 Sur 11 Sur 0 965.9 0.9 100
2019-04-07 08:00:00 2.1 9 Sur 11 Sur 0 965.6 0.9 100
2019-04-07 07:00:00 1.7 6 Sur 11 Sur 0 965.3 0.9 100
2019-04-07 06:00:00 2.6 -- -- -- -- 0 965 0.6 99
2019-04-07 05:00:00 4.1 10 Sudoeste 17 Sudoeste 0 964.7 0.7 99
2019-04-07 04:00:00 3 9 Sur 18 Sur 0 964.4 0.6 99
2019-04-07 03:00:00 2.6 0 Calma 11 Sur 0 964.4 1 99
2019-04-07 02:00:00 3.5 3 Sur 5 Sudoeste 0 964 0.7 98
2019-04-07 01:00:00 3.7 0 Calma 9 Sudoeste 0 963.8 1.3 96
2019-04-07 00:00:00 4.1 6 Oeste 22 Norte 0.4 963.4 1.4 97
2019-04-06 23:00:00 5.6 9 Noroeste 18 Noroeste 0.1 963.3 1.7 89
2019-04-06 22:00:00 4.8 7 Sur 11 Noroeste 0 962.5 1.7 93
2019-04-06 21:00:00 5 3 Noroeste 39 Noroeste 0 962 1.7 93
2019-04-06 20:00:00 7 9 Noroeste 26 Noroeste 0.7 961.6 2 93
2019-04-06 19:00:00 7.5 14 Noroeste 35 Noroeste 0.4 960.8 1.6 94
2019-04-06 18:00:00 7.7 15 Noroeste 61 Oeste 1.3 960.3 1.4 91
2019-04-06 17:00:00 9.5 25 Noroeste 39 Noroeste 0 959.6 1.5 69
2019-04-06 16:00:00 8.8 24 Noroeste 48 Noroeste 1.5 959.2 2 85
2019-04-06 15:00:00 7.1 25 Noroeste 41 Oeste 0.4 958.9 2.5 90
2019-04-06 14:00:00 6.5 24 Noroeste 46 Oeste 0.5 958.1 2.7 91
2019-04-06 13:00:00 7 13 Noroeste 39 Noroeste 0.4 957.2 2.7 90
2019-04-06 12:00:00 5.8 17 Oeste 39 Oeste 0.1 956.4 2.8 94
2019-04-06 11:00:00 5.9 15 Oeste 33 Sudoeste 0.5 955.4 2.8 93
2019-04-06 10:00:00 5.5 14 Noroeste 26 Oeste 2.8 954.5 2.2 95
2019-04-06 09:00:00 5.4 12 Oeste 22 Oeste 0.6 953.6 1 95
2019-04-06 08:00:00 5.3 12 Sudoeste 24 Sudoeste 1.3 952.6 -1 98
2019-04-06 07:00:00 5.1 14 Sur 35 Sudoeste 1 952.3 -2 98
2019-04-06 06:00:00 4.8 16 Sur 32 Sur 1.1 952.6 -2.8 98
2019-04-06 05:00:00 4.9 11 Sur 28 Sudoeste 0.9 953.6 -2.5 97
2019-04-06 04:00:00 4.6 13 Sur 32 Sudoeste 0.7 954.3 -2.7 100
2019-04-06 03:00:00 4.1 5 Sur 21 Sur 1.6 955.4 -1.7 99
2019-04-06 02:00:00 4.3 14 Sur 35 Sudoeste 2.2 956.1 -1.6 96
2019-04-06 01:00:00 4.5 12 Sudoeste 21 Sur 0 957 -0.1 99
2019-04-06 00:00:00 4.6 13 Sur 30 Sudoeste 0.8 957.1 0.1 97
2019-04-05 23:00:00 5.7 15 Sudoeste 37 Sudoeste 1.1 957.7 1.1 96
2019-04-05 22:00:00 4.8 10 Sur 18 Oeste 0 957.1 0.9 98
2019-04-05 21:00:00 5.1 5 Sudoeste 26 Noroeste 0.9 957 1.1 93
2019-04-05 20:00:00 6 11 Sur 21 Sur 0 956.6 1 97
2019-04-05 19:00:00 6.5 12 Sur 18 Sur 0 956.2 0.9 94
2019-04-05 18:00:00 5.8 8 Sur 18 Oeste 2.5 955.9 1 91
2019-04-05 17:00:00 6.3 9 Sur 17 Sur 0.1 955.6 0.7 94
2019-04-05 16:00:00 6.1 12 Sudoeste 24 Oeste 0.5 955.3 0.6 89
2019-04-05 15:00:00 7.5 14 Sur 26 Sur 0 954.9 0.7 87
2019-04-05 14:00:00 6 15 Sur 26 Sur 0.8 954.9 1.3 95
2019-04-05 13:00:00 4.9 18 Sudoeste 45 Sur 1.5 954.7 1.3 96
2019-04-05 12:00:00 5.7 21 Sudoeste 33 Sudoeste 1 954.2 0.9 92
2019-04-05 11:00:00 4.4 15 Sur 30 Sur 0 953.6 0.5 95
2019-04-05 10:00:00 3.2 14 Sur 24 Sur 0.1 953.4 0.5 100
2019-04-05 09:00:00 2.1 9 Sur 13 Sur 0.1 953.3 0.2 100
2019-04-05 08:00:00 1.7 8 Sur 11 Sur 0 953.1 -0.6 100
2019-04-05 07:00:00 1.2 8 Sur 13 Sur 0 952.9 -1.2 100
2019-04-05 06:00:00 2 9 Sur 21 Sudeste 0.1 953.1 -0.8 100
2019-04-05 05:00:00 2.9 11 Sur 18 Sur 0 953.7 -0.2 99
2019-04-05 04:00:00 3.3 10 Sur 30 Sudoeste 0.7 954.1 0.1 94
2019-04-05 03:00:00 3.8 12 Sur 18 Sudoeste 0 953.9 -0.4 95
2019-04-05 02:00:00 4.8 9 Sur 22 Sudoeste 0 953.9 -0.3 96
2019-04-05 01:00:00 4.9 7 Sur 13 Sur 0 954 -0.5 100
2019-04-05 00:00:00 4.9 7 Sur 13 Sur 0.7 954.3 0 100
2019-04-04 23:00:00 5.1 8 Sur 22 Sudoeste 1.5 954.2 -0.5 100
2019-04-04 22:00:00 5.2 10 Sur 18 Sur 2.2 954.5 -1 100
2019-04-04 21:00:00 5.7 13 Sur 18 Sur 1.2 954.3 -1.2 100
2019-04-04 20:00:00 6.2 11 Sur 22 Sudoeste 3.6 954.7 -1.7 99
2019-04-04 19:00:00 6.5 11 Sudoeste 32 Sur 6.2 955.5 -1.9 98
2019-04-04 18:00:00 6.7 17 Sur 45 Sur 1.6 955.5 -2.9 96
2019-04-04 17:00:00 6.8 26 Sur 46 Sur 1 956.4 -2.9 95
2019-04-04 16:00:00 7.1 26 Sur 50 Sur 0.3 957.4 -2.8 92
2019-04-04 15:00:00 6.8 25 Sudoeste 45 Sur 0.6 958.4 -2.7 96
2019-04-04 14:00:00 6.5 23 Sur 48 Sur 0.4 959.3 -2.4 96
2019-04-04 13:00:00 6.8 22 Sur 41 Sudoeste 0 960.2 -2.2 88
2019-04-04 12:00:00 6.4 15 Sur 30 Sur 0 961.1 -1.6 91
2019-04-04 11:00:00 4.5 9 Sur 18 Sur 0 961.7 -1.4 98
2019-04-04 10:00:00 3.6 13 Sur 21 Sur 0 962.4 -1 96
2019-04-04 09:00:00 3.1 12 Sur 18 Sudoeste 0 962.7 -1.4 96
2019-04-04 08:00:00 1.7 4 Sur 17 Sudoeste 0 963.1 -1.6 98
2019-04-04 07:00:00 3 11 Sur 15 Sur 0.1 963.4 -2 96
2019-04-04 06:00:00 2.5 5 Sudoeste 9 Sur 0 964.1 -2.2 100
2019-04-04 05:00:00 0.7 0 Calma 11 Oeste 0 964.7 -2.4 96
2019-04-04 04:00:00 1.9 0 Calma 9 Sudoeste 0 965.4 -2.3 95
2019-04-04 03:00:00 1.5 4 Oeste 8 Nordeste 0 966.3 -1.8 99
2019-04-04 02:00:00 2.7 4 Sudoeste 13 Norte 0 967.1 -1.8 97
2019-04-04 01:00:00 3.9 7 Noroeste 11 Noroeste 0 967.7 -0.9 95
2019-04-04 00:00:00 2.8 4 Oeste 24 Norte 0.2 968.1 -0.3 96
2019-04-03 23:00:00 3.7 9 Norte 22 Norte 0.1 968.9 0.6 94
2019-04-03 22:00:00 3.9 9 Noroeste 18 Norte 0 968.6 0 89
2019-04-03 21:00:00 4.8 17 Norte 48 Norte 0 968.4 -0.3 84
2019-04-03 20:00:00 7.3 18 Norte 33 Noroeste 0 968.3 -0.6 74
2019-04-03 19:00:00 6.8 24 Norte 48 Norte 0 968.6 -0.7 76
2019-04-03 18:00:00 7.6 17 Norte 52 Norte 0 968.7 -1.4 71
2019-04-03 17:00:00 7.3 21 Norte 50 Noroeste 0.1 968.9 -1.4 79
2019-04-03 16:00:00 9.4 18 Norte 42 Norte 0.3 969.3 -1.1 64
2019-04-03 15:00:00 8.5 27 Norte 54 Norte 0.3 970.1 -0.8 72
2019-04-03 14:00:00 7.9 37 Norte 59 Norte 0.1 970.3 -0.7 75
2019-04-03 13:00:00 8.2 22 Norte 39 Noroeste 0 970.4 -0.9 77
2019-04-03 12:00:00 6 24 Norte 41 Norte 0.6 970.9 -0.5 90
2019-04-03 11:00:00 5.8 10 Noroeste 39 Noroeste 0.4 971 -0.2 92
2019-04-03 10:00:00 5.2 11 Noroeste 17 Noroeste 0 971.3 -0.2 94
2019-04-03 09:00:00 4.7 9 Noroeste 17 Noroeste 0 971.4 -0.3 96
2019-04-03 08:00:00 4.4 10 Noroeste 24 Oeste 0 971.2 -1.1 94
2019-04-03 07:00:00 3.7 7 Noroeste 15 Noroeste 0.1 971.5 -1.4 96
2019-04-03 06:00:00 4.3 7 Noroeste 15 Noroeste 0.2 971.7 -1.6 97
2019-04-03 05:00:00 4.8 8 Oeste 13 Noroeste 0 972.3 -1.7 94
2019-04-03 04:00:00 5.4 6 Noroeste 17 Norte 0 972.9 -1.5 95
2019-04-03 03:00:00 4.6 8 Noroeste 13 Noroeste 0 973.3 -1.5 91
2019-04-03 02:00:00 5.5 9 Noroeste 17 Norte 0 974 -0.7 88
2019-04-03 01:00:00 5.7 11 Norte 21 Norte 0 974.4 -0.1 86
2019-04-03 00:00:00 7.4 12 Norte 22 Norte 0 974.8 0.4 82
2019-04-02 23:00:00 7.8 14 Norte 32 Norte 0 974.7 0.6 83
2019-04-02 22:00:00 7.8 22 Norte 32 Norte 0 974.5 0.6 87
2019-04-02 21:00:00 8 21 Norte 41 Norte 0 974.4 0.1 82
2019-04-02 20:00:00 10.4 19 Norte 37 Norte 0 974.1 -0.2 64
2019-04-02 19:00:00 11.8 28 Norte 37 Norte 0 973.9 -0.8 61
2019-04-02 18:00:00 12.2 22 Norte 33 Norte 0 974.3 -0.8 61
2019-04-02 17:00:00 12.9 18 Norte 32 Norte 0 974.3 -1.2 58
2019-04-02 16:00:00 13.2 20 Norte 35 Noroeste 0 974.7 -1.2 58
2019-04-02 15:00:00 12.2 14 Norte 32 Norte 0 975.1 -0.9 66
2019-04-02 14:00:00 12.6 10 Norte 26 Norte 0 975.5 -0.4 67
2019-04-02 13:00:00 11.6 10 Norte 18 Norte 0 975.9 0.2 75
2019-04-02 12:00:00 10.8 4 Norte 13 Nordeste 0 976 0.5 81
2019-04-02 11:00:00 9.4 3 Norte 15 Nordeste 0 975.9 0.9 88
2019-04-02 10:00:00 9.1 3 Norte 9 Norte 0 975.7 0.9 89
2019-04-02 09:00:00 8.8 6 Norte 15 Norte 0 975.5 1 88
2019-04-02 08:00:00 8.8 10 Norte 22 Norte 0 975 0.5 87
2019-04-02 07:00:00 9 12 Norte 24 Norte 0 974.8 0.3 88
2019-04-02 06:00:00 8.8 12 Norte 26 Norte 0 974.5 -0.2 90
2019-04-02 05:00:00 8.7 8 Norte 21 Norte 0 974.5 -0.2 93
2019-04-02 04:00:00 8.8 11 Norte 22 Norte 0 974.5 0.3 94
2019-04-02 03:00:00 8.7 16 Norte 24 Norte 0 974.7 0.5 96
2019-04-02 02:00:00 8 12 Norte 17 Norte 0 974.7 1 97
2019-04-02 01:00:00 8.4 9 Noroeste 15 Noroeste 0 974.2 1.1 90
2019-04-02 00:00:00 9.6 9 Noroeste 17 Norte 0 974.2 2.2 79
2019-04-01 23:00:00 9.8 10 Norte 13 Norte 0 973.7 2.5 76
2019-04-01 22:00:00 13 8 Norte 17 Norte 0 973.1 2.7 63
2019-04-01 21:00:00 14.4 7 Norte 15 Norte 0 972 1.8 53
2019-04-01 20:00:00 16.8 8 Norte 17 Sudoeste 0 971.2 1.1 38
2019-04-01 19:00:00 17.4 6 Este 17 Norte 0 970.4 0.1 48
2019-04-01 18:00:00 18.9 7 Norte 24 Norte 0 970.2 -0.5 33
2019-04-01 17:00:00 20.2 7 Este 24 Nordeste 0 970.1 -0.9 30
2019-04-01 16:00:00 20 9 Nordeste 24 Norte 0 970.3 -1 32
2019-04-01 15:00:00 19.8 12 Norte 24 Norte 0 970.7 -0.7 33
2019-04-01 14:00:00 18.7 6 Nordeste 17 Nordeste 0 971 0 43
2019-04-01 13:00:00 17.5 7 Este 15 Este 0 971.3 0.6 45
2019-04-01 12:00:00 15.8 6 Sudeste 21 Este 0 971.4 1.3 55
2019-04-01 11:00:00 13.5 6 Este 17 Sudeste 0 971 1.5 63
2019-04-01 10:00:00 11.4 4 Sudeste 13 Sudeste 0 970.7 1.6 69
2019-04-01 09:00:00 9.5 3 Sudeste 9 Este 0 970.1 1.2 73
2019-04-01 08:00:00 7.9 2 Este 11 Nordeste 0 969.5 0.6 82
2019-04-01 07:00:00 8.2 0 Calma 11 Nordeste 0 969.1 0 85
2019-04-01 06:00:00 8.8 3 Este 13 Norte 0 968.9 -0.3 87
2019-04-01 05:00:00 9 3 Nordeste 13 Norte 0 968.9 -0.4 87
2019-04-01 04:00:00 9.2 5 Norte 13 Norte 0 969.1 -0.3 87
2019-04-01 03:00:00 10 2 Este 17 Nordeste 0 969.2 -0.2 81
2019-04-01 02:00:00 10.4 4 Sudeste 13 Este 0 969.3 -0.2 75
2019-04-01 01:00:00 9.6 2 Norte 5 Nordeste 0 969.4 0.5 81
2019-04-01 00:00:00 11.1 4 Sur 8 Sur 0 969.4 0.9 70
2019-03-31 23:00:00 12 5 Sur 21 Este 0 969.5 0.3 67
2019-03-31 22:00:00 13.8 4 Este 32 Norte 0 968.9 -0.5 55
2019-03-31 21:00:00 12.6 14 Norte 37 Nordeste 1.3 968.5 -0.5 67
2019-03-31 20:00:00 13.1 14 Este 39 Este 0.4 969.2 0.4 68
2019-03-31 19:00:00 15.7 6 Este 22 Norte 0.2 969.4 0.4 60
2019-03-31 18:00:00 17.7 16 Norte 30 Noroeste 0 969 -0.3 39
2019-03-31 17:00:00 18.8 8 Oeste 30 Oeste 0 968.8 -1.2 38
2019-03-31 16:00:00 18.6 18 Sudoeste 37 Sur 0 969 -1.5 41
2019-03-31 15:00:00 20.8 6 Este 17 Nordeste 0 969.3 -1.5 30
2019-03-31 14:00:00 19.5 6 Este 15 Nordeste 0 970 -0.9 39
2019-03-31 13:00:00 17.9 6 Este 13 Este 0 970.5 -0.4 47
2019-03-31 12:00:00 15.4 4 Nordeste 9 Nordeste 0 970.8 0 55
2019-03-31 11:00:00 12.9 3 Nordeste 8 Nordeste 0 970.9 0.2 57
2019-03-31 10:00:00 10.1 4 Sudeste 5 Sudeste 0 970.9 0.1 63
2019-03-31 09:00:00 7.5 0 Calma 4 Sur 0 970.8 -0.5 68
2019-03-31 08:00:00 7.7 0 Calma 5 Sudeste 0 970.7 -1.1 67
2019-03-31 07:00:00 7.7 0 Calma 5 Norte 0 970.8 -1.6 74
2019-03-31 06:00:00 7.6 0 Calma 5 Norte 0 971.3 -1.6 78
2019-03-31 05:00:00 8.2 3 Nordeste 9 Oeste 0 971.8 -1.8 86
2019-03-31 03:00:00 7.6 4 Norte 9 Noroeste 0 972.9 -1.2 97
2019-03-31 01:00:00 7.3 5 Noroeste 13 Oeste 0 973.6 -0.6 94
2019-03-31 00:00:00 8.4 6 Noroeste 9 Noroeste 0 973.8 0.1 90
2019-03-30 23:00:00 11.1 4 Norte 8 Norte 0 974.1 1 69
2019-03-30 22:00:00 10.6 4 Norte 13 Noroeste 0 974.2 1.2 80
2019-03-30 21:00:00 11.9 3 Norte 9 Norte 0 973.7 0.9 79
2019-03-30 20:00:00 14.2 3 Nordeste 21 Noroeste 0 973.1 0.3 70
2019-03-30 19:00:00 17.4 13 Noroeste 26 Noroeste 0 973 0 31
2019-03-30 18:00:00 18.7 12 Oeste 28 Oeste 0 972.8 -0.7 31
2019-03-30 17:00:00 19.3 15 Oeste 30 Oeste 0 972.8 -1.2 27
2019-03-30 16:00:00 19.8 12 Sudoeste 28 Oeste 0 973 -1.6 29
2019-03-30 15:00:00 19.7 14 Oeste 30 Oeste 0 973.5 -1.6 26
2019-03-30 14:00:00 19.3 12 Oeste 22 Oeste 0 974 -1.3 30
2019-03-30 13:00:00 18.3 14 Sudoeste 26 Sudoeste 0 974.6 -0.9 31
2019-03-30 12:00:00 16.9 13 Sudoeste 21 Sur 0 975.1 -0.4 34
2019-03-30 11:00:00 14.5 10 Sur 17 Sur 0 975.3 0.2 46
2019-03-30 10:00:00 11.6 6 Sur 11 Sudeste 0 975.5 0.5 53
2019-03-30 09:00:00 9.6 3 Sur 9 Sur 0 975.5 0.6 61
2019-03-30 08:00:00 6.1 9 Sur 11 Sur 0 975.1 -0.1 71
2019-03-30 07:00:00 5.9 3 Sudoeste 8 Sur 0 975 -0.4 72
2019-03-30 06:00:00 6.6 4 Sur 8 Sur 0 974.9 -0.7 70
2019-03-30 05:00:00 7.9 0 Calma 8 Sur 0 975.2 -0.8 65
2019-03-30 04:00:00 8.8 3 Sur 9 Sur 0 975.4 -0.9 61
2019-03-30 03:00:00 8.9 3 Sur 9 Sur 0 975.6 -0.8 60
2019-03-30 02:00:00 8.6 4 Sur 8 Sur 0 976 -0.7 62
2019-03-30 01:00:00 9 6 Sur 8 Sur 0 976.3 -0.5 60
2019-03-30 00:00:00 10.4 2 Sudeste 5 Sudeste 0 976.4 -0.2 54
2019-03-29 23:00:00 12 0 Calma 9 Sur 0 976.7 0.3 46
2019-03-29 22:00:00 11.8 0 Calma 17 Sudoeste 0 976.8 0.8 45
2019-03-29 21:00:00 13.2 8 Sudoeste 18 Sudoeste 0 976.6 0.8 45
2019-03-29 20:00:00 14.3 8 Sudoeste 11 Sudoeste 0 976.4 0.6 40
2019-03-29 19:00:00 16.4 9 Sudoeste 24 Oeste 0 976 0 37
2019-03-29 18:00:00 17.5 17 Sudoeste 32 Oeste 0 975.8 -0.7 36
2019-03-29 17:00:00 19.7 15 Sudoeste 30 Oeste 0 975.8 -1.4 34
2019-03-29 16:00:00 20.8 14 Oeste 32 Oeste 0 976 -1.6 33
2019-03-29 15:00:00 21.3 12 Sudoeste 22 Sudoeste 0 976.5 -1.7 32
2019-03-29 14:00:00 20.9 9 Sur 21 Sudoeste 0 977.2 -1.3 30
2019-03-29 13:00:00 20 10 Sur 21 Sur 0 977.6 -1.1 34
2019-03-29 12:00:00 18.4 5 Sur 17 Sur 0 978.2 -0.6 37
2019-03-29 11:00:00 16.1 9 Sudeste 15 Sudeste 0 978.5 -0.4 45
2019-03-29 10:00:00 13.5 6 Sudeste 13 Sudeste 0 978.7 0 55
2019-03-29 09:00:00 10 6 Sudeste 13 Sudeste 0 978.8 0 69
2019-03-29 08:00:00 7.4 2 Sudeste 9 Este 0 978.9 0 78
2019-03-29 07:00:00 7 3 Este 11 Sudeste 0 978.7 -0.5 81
2019-03-29 06:00:00 7.8 3 Sudeste 8 Este 0 978.8 -0.7 79
2019-03-29 05:00:00 7.4 2 Este 8 Este 0 978.9 -0.9 81
2019-03-29 04:00:00 7.4 0 Calma 8 Este 0 979.2 -0.9 82
2019-03-29 03:00:00 7.8 2 Sudeste 11 Sudeste 0 979.5 -0.8 80
2019-03-29 02:00:00 7.7 3 Sudeste 13 Este 0 979.8 -0.8 82
2019-03-29 01:00:00 8.4 3 Este 13 Este 0 980.1 -0.7 77
2019-03-29 00:00:00 9.1 4 Sudeste 13 Sudeste 0 980.3 -0.1 75
2019-03-28 23:00:00 10 2 Este 5 Este 0 980.6 0.9 70
2019-03-28 22:00:00 10.9 0 Calma 8 Nordeste 0 980.8 1.4 66
2019-03-28 21:00:00 13.2 2 Nordeste 13 Norte 0 980.4 1.2 58
2019-03-28 20:00:00 15 5 Nordeste 17 Nordeste 0 979.7 0 54
2019-03-28 19:00:00 18.2 6 Nordeste 18 Nordeste 0 979.4 -1 45
2019-03-28 18:00:00 20.4 8 Nordeste 24 Norte 0 979.2 -1.8 39
2019-03-28 17:00:00 21.8 4 Nordeste 17 Norte 0 979.7 -2 29
2019-03-28 16:00:00 21.4 4 Nordeste 22 Este 0 980.4 -2.1 28
2019-03-28 15:00:00 21.4 6 Nordeste 30 Norte 0 981 -2.2 30
2019-03-28 14:00:00 20.4 9 Norte 26 Norte 0 981.7 -2.1 30
2019-03-28 13:00:00 19.3 6 Este 18 Este 0 982.5 -1.1 34
2019-03-28 12:00:00 16.7 5 Nordeste 15 Este 0 983.2 -0.6 40
2019-03-28 11:00:00 14 6 Este 17 Nordeste 0 983.8 0.4 46
2019-03-28 10:00:00 10.8 5 Este 13 Sudeste 0 983.6 0.6 51
2019-03-28 09:00:00 8.5 0 Calma 11 Sur 0 983.8 1.1 56
2019-03-28 08:00:00 6.2 0 Calma 8 Este 0 983.4 1 65
2019-03-28 07:00:00 5.4 2 Este 11 Este 0 983 0.5 71
2019-03-28 06:00:00 6.3 6 Sudeste 9 Sudeste 0 982.7 0.1 67
2019-03-28 05:00:00 7.5 2 Este 15 Este 0 982.4 -0.4 63
2019-03-28 04:00:00 6.8 3 Este 13 Este 0 982.5 -0.4 69
2019-03-28 03:00:00 7.8 4 Sudeste 15 Este 0 982.6 -0.2 66
2019-03-28 02:00:00 7.1 3 Sudeste 11 Sudeste 0 982.8 0.3 75
2019-03-28 01:00:00 6.9 8 Sudeste 15 Sudeste 0 982.9 0.7 76
2019-03-28 00:00:00 7.8 6 Sudeste 9 Sudeste 0 982.8 1.3 72
2019-03-27 23:00:00 8.4 2 Este 9 Nordeste 0 982.5 1.5 64
2019-03-27 22:00:00 9.7 3 Este 13 Este 0 982.2 1.9 60
2019-03-27 21:00:00 11.5 5 Este 18 Nordeste 0 981.5 1.5 55
2019-03-27 20:00:00 14.4 4 Nordeste 18 Este 0 981 1 47
2019-03-27 19:00:00 17.7 4 Nordeste 24 Norte 0 980.3 0.2 39
2019-03-27 18:00:00 20.1 8 Nordeste 24 Este 0 980 -0.4 31
2019-03-27 17:00:00 21.1 8 Nordeste 21 Nordeste 0 980 -0.9 26
2019-03-27 16:00:00 21.8 9 Nordeste 24 Nordeste 0 980.1 -1.1 21
2019-03-27 15:00:00 21.7 6 Este 21 Este 0 980.4 -1.2 19
2019-03-27 14:00:00 20.3 8 Este 26 Nordeste 0 980.9 -0.6 23
2019-03-27 13:00:00 18.5 8 Este 22 Sudeste 0 981.2 0 22
2019-03-27 12:00:00 16.1 7 Este 22 Este 0 981.6 0.6 32
2019-03-27 11:00:00 13 6 Este 21 Este 0 981.5 0.9 45
2019-03-27 10:00:00 10.1 8 Este 18 Este 0 981.2 1.3 52
2019-03-27 09:00:00 6.9 2 Norte 15 Sudeste 0 981 1.5 57
2019-03-27 08:00:00 4.8 3 Sudeste 15 Sudeste 0 980.6 1.3 67
2019-03-27 07:00:00 4.2 7 Sur 11 Sur 0 979.9 1 74
2019-03-27 06:00:00 4.6 4 Sudeste 11 Sudeste 0 979.5 0.6 76
2019-03-27 05:00:00 4.4 5 Sur 9 Sur 0 979.3 0.6 79
2019-03-27 04:00:00 5 3 Este 13 Nordeste 0 978.9 0.4 79
2019-03-27 03:00:00 5.7 3 Norte 11 Norte 0 978.9 0.9 77
2019-03-27 02:00:00 6.5 2 Noroeste 11 Norte 0 978.7 0.9 74
2019-03-27 01:00:00 6.8 2 Noroeste 21 Este 0 978.5 1.1 75
2019-03-27 00:00:00 6.2 9 Sudeste 18 Sur 0 978 1 80
2019-03-26 23:00:00 7.5 5 Este 18 Este 0 977.8 1.6 73
2019-03-26 22:00:00 7.8 3 Este 15 Este 0 977.4 1.9 72
2019-03-26 21:00:00 9.8 5 Este 21 Este 0 977 1.9 64
2019-03-26 20:00:00 11.9 7 Este 28 Nordeste 0 976.2 1.3 55
2019-03-26 19:00:00 15.2 7 Este 26 Este 0 975.5 0.1 49
2019-03-26 18:00:00 17.4 6 Este 30 Nordeste 0 975.1 -0.7 44
2019-03-26 17:00:00 19 9 Este 33 Este 0 974.9 -1.4 39
2019-03-26 16:00:00 19.6 9 Este 24 Este 0 975.4 -1.4 36
2019-03-26 15:00:00 20 9 Este 35 Este 0 975.8 -1.3 29
2019-03-26 14:00:00 18.9 10 Este 30 Norte 0 976.3 -1.4 31
2019-03-26 13:00:00 17.1 10 Este 32 Este 0 976.8 -0.8 37
2019-03-26 12:00:00 14.9 9 Este 24 Nordeste 0 977.1 -0.6 45
2019-03-26 11:00:00 13.1 5 Este 22 Nordeste 0 977.7 -0.1 55
2019-03-26 10:00:00 10.4 5 Este 15 Sur 0 977.6 -0.1 60
2019-03-26 09:00:00 7.1 2 Norte 8 Norte 0 977.7 0 69
2019-03-26 08:00:00 5.2 0 Calma 8 Este 0 977.8 0 73
2019-03-26 07:00:00 5.4 0 Calma 17 Este 0 977.7 -0.6 72
2019-03-26 06:00:00 5.6 4 Nordeste 18 Nordeste 0 977.7 -1 75
2019-03-26 05:00:00 5.8 4 Nordeste 13 Norte 0 977.8 -1.3 75
2019-03-26 04:00:00 6.7 4 Nordeste 18 Nordeste 0 978.3 -0.9 70
2019-03-26 03:00:00 6.8 3 Este 17 Este 0 978.7 -0.3 68
2019-03-26 02:00:00 8.1 3 Este 18 Nordeste 0 979.1 0.3 62
2019-03-26 01:00:00 8.6 4 Sudeste 22 Este 0 979.2 0.6 62
2019-03-26 00:00:00 8.5 4 Este 15 Este 0 979 1 67
2019-03-25 23:00:00 9 5 Este 18 Este 0 978.8 1 67
2019-03-25 22:00:00 9.4 4 Nordeste 17 Este 0 978.6 0.6 69
2019-03-25 21:00:00 10.3 6 Nordeste 22 Este 0 978 0.2 66
2019-03-25 20:00:00 11.6 9 Este 37 Nordeste 0 977.8 -0.2 67
2019-03-25 19:00:00 13.7 8 Nordeste 30 Nordeste 0 978 -0.4 62
2019-03-25 18:00:00 15.8 9 Nordeste 33 Este 0 977.8 -1.1 57
2019-03-25 17:00:00 17.7 10 Nordeste 30 Norte 0 978 -1.8 52
2019-03-25 16:00:00 19 7 Nordeste 21 Este 0 978.4 -2 48
2019-03-25 15:00:00 18.5 8 Nordeste 21 Este 0 978.9 -2.2 47
2019-03-25 14:00:00 18 9 Este 21 Nordeste 0 979.8 -1.4 50
2019-03-25 13:00:00 16.9 8 Sudeste 24 Este 0 980.4 -0.8 52
2019-03-25 12:00:00 15.5 8 Este 24 Este 0 981.1 0.1 59
2019-03-25 11:00:00 13.4 9 Este 24 Nordeste 0 981.2 0.6 65
2019-03-25 10:00:00 11.3 7 Este 18 Este 0 981.2 0.9 73
2019-03-25 09:00:00 8.6 4 Este 15 Este 0 981 0.7 84
2019-03-25 08:00:00 6.4 3 Este 13 Este 0 980.6 0.2 93
2019-03-25 07:00:00 6.7 2 Este 11 Este 0 980.3 -0.3 90
2019-03-25 06:00:00 6.7 3 Este 13 Este 0 980.3 -0.4 87
2019-03-25 05:00:00 7.1 0 Calma 11 Nordeste 0 980.4 -0.5 83
2019-03-25 04:00:00 7.4 2 Norte 11 Este 0 980.6 -0.5 75
2019-03-25 03:00:00 7.9 0 Calma 11 Este 0 980.7 -0.7 71
2019-03-25 02:00:00 8.2 0 Calma 9 Norte 0 980.9 -0.6 69
2019-03-25 01:00:00 8.8 0 Calma 11 Nordeste 0 981.1 -0.5 63
2019-03-25 00:00:00 9.7 2 Norte 9 Noroeste 0 981.4 0.3 60
2019-03-24 23:00:00 10.8 2 Este 18 Nordeste 0 981.5 0.9 55
2019-03-24 22:00:00 11.9 8 Este 24 Este 0 981.6 1.8 52
2019-03-24 21:00:00 12.2 4 Nordeste 17 Este 0 981.1 2.2 51
2019-03-24 20:00:00 14.3 6 Nordeste 30 Este 0 980.6 1.6 46
2019-03-24 19:00:00 18.3 8 Nordeste 32 Nordeste 0 979.8 0.4 41
2019-03-24 18:00:00 21.4 9 Nordeste 26 Norte 0 978.9 -1 34
2019-03-24 17:00:00 22.3 10 Norte 26 Norte 0 979 -1.6 34
2019-03-24 16:00:00 22.5 8 Este 22 Nordeste 0 979.4 -1.8 34
2019-03-24 15:00:00 22.2 9 Nordeste 24 Norte 0 979.9 -1.7 37
2019-03-24 14:00:00 21.2 7 Norte 21 Norte 0 980.6 -1.3 42
2019-03-24 13:00:00 19.6 8 Norte 18 Nordeste 0 981.2 -0.4 48
2019-03-24 12:00:00 17.8 5 Sudeste 18 Norte 0 981.6 0.4 50
2019-03-24 11:00:00 15.6 4 Nordeste 13 Norte 0 981.9 1.1 52
2019-03-24 10:00:00 13.7 4 Nordeste 11 Norte 0 981.6 1.1 55
2019-03-24 09:00:00 10.6 0 Calma 8 Nordeste 0 981.2 0.7 62
2019-03-24 08:00:00 8.5 0 Calma 8 Sudeste 0 980.8 0.3 65
2019-03-24 07:00:00 8.3 3 Este 13 Sudeste 0 980.5 0.1 65
2019-03-24 06:00:00 8.8 4 Sudeste 9 Sudeste 0 980.5 0.1 61
2019-03-24 05:00:00 9.5 0 Calma 5 Nordeste 0 980.5 -0.1 55
2019-03-24 04:00:00 9.4 2 Nordeste 5 Nordeste 0 980.4 -0.4 54
2019-03-24 03:00:00 10.5 3 Norte 11 Norte 0 980.4 -0.7 50
2019-03-24 02:00:00 11.3 2 Norte 9 Nordeste 0 980.6 -0.7 46
2019-03-24 01:00:00 10.9 4 Norte 13 Norte 0 980.8 -0.6 52
2019-03-24 00:00:00 12.2 5 Norte 11 Norte 0 981.1 0.2 51
2019-03-23 23:00:00 10.5 10 Noroeste 15 Noroeste 0 981.3 1.1 66
2019-03-23 22:00:00 12.3 11 Norte 17 Norte 0 981.4 1.7 58
2019-03-23 21:00:00 12.7 10 Norte 18 Norte 0 980.9 1.9 53
2019-03-23 20:00:00 14.4 13 Norte 28 Norte 0 980.2 1.2 48
2019-03-23 19:00:00 17.6 15 Norte 24 Norte 0 979.7 0.2 42
2019-03-23 18:00:00 20.8 13 Norte 18 Norte 0 979 -1.1 33
2019-03-23 17:00:00 21.3 8 Norte 17 Norte 0 979 -1.7 31
2019-03-23 16:00:00 21 5 Oeste 18 Sudoeste 0 979.5 -1.8 30
2019-03-23 15:00:00 20.3 6 Noroeste 17 Noroeste 0 980.1 -1.6 31
2019-03-23 14:00:00 20.2 6 Sur 17 Sudoeste 0 980.7 -1.2 31
2019-03-23 13:00:00 19.3 7 Sur 18 Sur 0 981.3 -0.8 35
2019-03-23 12:00:00 17.4 6 Sudeste 21 Sur 0 981.7 -0.3 46
2019-03-23 11:00:00 15 6 Sudeste 17 Sudeste 0 981.9 0.1 54
2019-03-23 10:00:00 12.5 6 Sudeste 13 Sudeste 0 982.1 0.3 60
2019-03-23 09:00:00 8.8 4 Sudeste 9 Sur 0 982 0 72
2019-03-23 08:00:00 6.3 3 Este 8 Este 0 981.8 -0.3 79
2019-03-23 07:00:00 6.8 3 Este 13 Este 0 981.8 -0.6 74
2019-03-23 06:00:00 7 3 Este 9 Este 0 982 -1 75
2019-03-23 05:00:00 7.2 2 Este 8 Este 0 982.1 -1.1 76
2019-03-23 04:00:00 7.5 0 Calma 4 Sudeste 0 982.4 -0.8 77
2019-03-23 03:00:00 7.4 0 Calma 2 Sur 0 983 -0.5 75
2019-03-23 02:00:00 7.7 0 Calma 4 Este 0 983.2 -0.6 74
2019-03-23 01:00:00 8.1 0 Calma 5 Nordeste 0 983.2 -0.3 74
2019-03-23 00:00:00 8.7 0 Calma 8 Norte 0 983.5 0.5 73
2019-03-22 23:00:00 9 0 Calma 11 Este 0 983.8 1.3 70
2019-03-22 22:00:00 9.8 3 Nordeste 13 Norte 0 983.5 1.4 73
2019-03-22 21:00:00 10.9 7 Norte 13 Norte 0 983 1.5 73
2019-03-22 20:00:00 12.8 7 Norte 15 Norte 0 982.5 0.9 69
2019-03-22 19:00:00 15.4 8 Norte 21 Norte 0 982.1 0.1 61
2019-03-22 18:00:00 17.9 8 Oeste 24 Noroeste 0 981.5 -0.8 36
2019-03-22 17:00:00 18.5 10 Oeste 22 Oeste 0 981.6 -1.2 35
2019-03-22 16:00:00 18.4 9 Oeste 18 Sudoeste 0 982 -1.3 34
2019-03-22 15:00:00 18.1 10 Oeste 24 Oeste 0 982.3 -1.3 37
2019-03-22 14:00:00 17.5 10 Sudoeste 21 Sur 0 982.8 -0.9 40
2019-03-22 13:00:00 16.4 10 Sur 26 Sur 0 983.3 -0.1 39
2019-03-22 12:00:00 15.3 5 Sudoeste 13 Sur 0 983.6 0.6 47
2019-03-22 11:00:00 12.6 6 Sur 13 Sudeste 0 983.7 1.2 58
2019-03-22 10:00:00 10.2 9 Sur 13 Sur 0 983.4 1.5 70
2019-03-22 09:00:00 7.8 7 Sur 11 Sudeste 0 983 1.5 79
2019-03-22 08:00:00 6.3 3 Sur 8 Sur 0 982.5 1 84
2019-03-22 07:00:00 5.8 4 Sur 9 Sur 0 981.9 0.3 88
2019-03-22 06:00:00 5.5 6 Sur 11 Sudeste 0 981.5 -0.3 89
2019-03-22 05:00:00 5.6 7 Sur 9 Sur 0 981.5 -0.4 91
2019-03-22 04:00:00 6.2 4 Sur 9 Sur 0 981.6 -0.4 89
2019-03-22 03:00:00 6.9 0 Calma 5 Este 0 981.8 0 87
2019-03-22 02:00:00 6.8 3 Sudoeste 11 Sudeste 0 981.9 -0.1 86
2019-03-22 01:00:00 8 6 Sudeste 9 Sur 0 982 0 83
2019-03-22 00:00:00 8.8 2 Este 5 Nordeste 0 981.8 0.4 83
2019-03-21 23:00:00 9.7 3 Oeste 13 Oeste 0 982 1.2 80
2019-03-21 22:00:00 9.8 5 Oeste 13 Norte 0 982 1.5 79
2019-03-21 21:00:00 10.8 10 Noroeste 18 Noroeste 0 981.4 0.9 75
2019-03-21 20:00:00 13.3 16 Noroeste 28 Noroeste 0 980.8 0.1 63
2019-03-21 19:00:00 16.8 11 Oeste 18 Oeste 0 980.5 -0.8 49
2019-03-21 18:00:00 18.2 4 Sudoeste 11 Norte 0 980.5 -1.7 37
2019-03-21 17:00:00 18.1 6 Este 13 Sudeste 0 980.7 -2.3 42
2019-03-21 16:00:00 18.1 7 Norte 17 Norte 0 981.3 -2.4 45
2019-03-21 15:00:00 17.6 6 Sudeste 15 Sudeste 0 982.2 -2 45
2019-03-21 14:00:00 16.4 8 Sudeste 17 Sudeste 0 983 -1.2 47
2019-03-21 13:00:00 15 5 Nordeste 11 Noroeste 0 983.7 -0.3 52
2019-03-21 12:00:00 13.6 5 Sudeste 15 Este 0 984.2 0 53
2019-03-21 11:00:00 11.9 8 Sudeste 13 Sudeste 0 984.2 0.4 55
2019-03-21 10:00:00 9.7 5 Sudeste 15 Sudeste 0 984 0.2 68
2019-03-21 09:00:00 6.3 6 Este 15 Sudeste 0 984.2 0.5 77
2019-03-21 08:00:00 4.6 5 Este 15 Sudeste 0 983.8 0.3 82
2019-03-21 07:00:00 5.1 4 Sudeste 15 Nordeste 0 983.8 0.1 78
2019-03-21 06:00:00 5.4 2 Sudeste 13 Sudeste 0 983.7 -0.5 84
2019-03-21 05:00:00 5.4 0 Calma 9 Nordeste 0 983.5 -0.7 86
2019-03-21 04:00:00 5.3 2 Nordeste 9 Este 0 983.7 -0.7 87
2019-03-21 03:00:00 5.2 0 Calma 9 Sur 0 984.2 -0.2 91
2019-03-21 02:00:00 5.3 2 Este 9 Nordeste 0 984.2 -0.2 92
2019-03-21 01:00:00 5.4 0 Calma 8 Norte 0 984.4 -0.1 91
2019-03-21 00:00:00 6.2 0 Calma 9 Nordeste 0 984.4 0.1 87